Time;durP1;ratioP1;P1;durP2;ratioP2;P2;SDS_P1;SDS_P2;PMS_P1;PMS_P2;Temp;Humidity;BMP_temperature;BMP_pressure;BME280_temperature;BME280_humidity;BME280_pressure;Samples;Min_cycle;Max_cycle;Signal;HPM_P1;HPM_P2
2022/05/10 00:01:27;;;;;;;6.38;3.80;;;11.70;59.70;;;;;;5000991;28;20737;-71
2022/05/10 00:04:16;;;;;;;7.28;4.00;;;11.60;60.00;;;;;;4986677;28;20234;-70
2022/05/10 00:07:05;;;;;;;6.65;4.03;;;11.50;60.40;;;;;;4992260;28;20604;-69
2022/05/10 00:09:53;;;;;;;8.80;4.20;;;11.80;60.00;;;;;;5005907;28;20865;-70
2022/05/10 00:12:42;;;;;;;9.75;4.32;;;11.70;60.20;;;;;;4986732;28;20245;-70
2022/05/10 00:15:31;;;;;;;8.65;4.72;;;11.80;60.50;;;;;;4987121;28;20304;-70
2022/05/10 00:18:24;;;;;;;9.65;4.32;;;11.50;60.40;;;;;;4976372;28;20244;-70
2022/05/10 00:21:16;;;;;;;9.13;4.45;;;11.40;60.70;;;;;;5005955;28;20226;-68
2022/05/10 00:24:05;;;;;;;10.65;4.70;;;11.80;60.40;;;;;;4982354;28;20280;-70
2022/05/10 00:26:55;;;;;;;8.85;4.20;;;11.50;60.30;;;;;;4979472;28;20241;-70
2022/05/10 00:29:46;;;;;;;11.13;4.35;;;11.30;60.70;;;;;;4998832;28;20218;-69
2022/05/10 00:32:37;;;;;;;7.28;4.65;;;11.30;61.00;;;;;;4975566;28;20226;-69
2022/05/10 00:35:31;;;;;;;9.40;4.75;;;11.50;60.30;;;;;;4985748;28;20230;-71
2022/05/10 00:38:25;;;;;;;8.93;4.40;;;11.60;60.00;;;;;;4974603;28;20380;-70
2022/05/10 00:41:27;;;;;;;8.25;4.30;;;11.40;59.80;;;;;;4985025;28;20223;-70
2022/05/10 00:44:21;;;;;;;6.20;4.13;;;11.30;60.30;;;;;;4999084;28;20673;-69
2022/05/10 00:47:15;;;;;;;11.80;4.07;;;11.20;60.20;;;;;;4978215;28;20225;-69
2022/05/10 00:50:09;;;;;;;8.15;4.35;;;11.30;60.60;;;;;;5005519;28;20232;-69
2022/05/10 00:53:06;;;;;;;9.93;4.32;;;11.30;60.70;;;;;;4978041;28;20769;-69
2022/05/10 00:56:05;;;;;;;8.55;3.88;;;11.40;60.70;;;;;;4998366;28;20221;-70
2022/05/10 00:58:59;;;;;;;8.98;3.97;;;11.50;60.50;;;;;;4994530;28;20266;-69
2022/05/10 01:01:53;;;;;;;7.40;4.07;;;11.50;60.40;;;;;;4986825;28;20226;-70
2022/05/10 01:04:48;;;;;;;7.72;4.22;;;11.30;60.80;;;;;;5001679;28;20301;-70
2022/05/10 01:07:49;;;;;;;8.10;4.10;;;11.40;60.70;;;;;;4975610;28;20222;-67
2022/05/10 01:10:48;;;;;;;9.93;4.22;;;11.50;60.70;;;;;;4982357;28;20253;-71
2022/05/10 01:13:41;;;;;;;6.22;3.90;;;11.20;61.10;;;;;;4973315;28;20223;-71
2022/05/10 01:16:30;;;;;;;8.07;3.95;;;11.10;61.30;;;;;;4982808;28;20226;-70
2022/05/10 01:19:19;;;;;;;8.27;4.05;;;11.00;61.50;;;;;;4977456;28;20299;-70
2022/05/10 01:22:22;;;;;;;9.82;4.20;;;11.20;61.90;;;;;;4970416;28;20235;-68
2022/05/10 01:25:30;;;;;;;8.10;4.03;;;11.10;62.00;;;;;;4962700;28;20223;-69
2022/05/10 01:28:30;;;;;;;8.57;4.20;;;11.00;62.30;;;;;;4970924;28;20238;-69
2022/05/10 01:31:29;;;;;;;8.20;4.10;;;11.00;62.20;;;;;;4978347;28;20231;-69
2022/05/10 01:34:21;;;;;;;8.13;4.22;;;11.00;62.10;;;;;;4976044;28;20227;-70
2022/05/10 01:37:15;;;;;;;8.43;4.53;;;11.20;62.20;;;;;;4944789;28;20360;-70
2022/05/10 01:40:12;;;;;;;7.90;4.30;;;11.00;62.60;;;;;;4972467;28;20286;-70
2022/05/10 01:43:08;;;;;;;7.18;4.43;;;11.00;62.90;;;;;;4967815;28;20245;-69
2022/05/10 01:46:02;;;;;;;7.53;4.25;;;11.00;63.20;;;;;;4978221;28;20226;-70
2022/05/10 01:48:53;;;;;;;9.95;4.50;;;10.90;63.60;;;;;;4968567;28;20298;-70
2022/05/10 01:51:53;;;;;;;8.30;4.28;;;10.80;63.70;;;;;;4958098;28;20233;-70
2022/05/10 01:55:08;;;;;;;9.57;4.38;;;10.70;64.20;;;;;;4979245;28;20234;-70
2022/05/10 01:58:02;;;;;;;10.23;4.55;;;10.50;64.10;;;;;;4970632;28;20584;-70
2022/05/10 02:00:55;;;;;;;11.27;4.50;;;10.50;64.90;;;;;;4965541;28;20246;-70
2022/05/10 02:03:51;;;;;;;9.83;4.20;;;10.50;64.90;;;;;;4970507;28;20348;-69
2022/05/10 02:06:49;;;;;;;9.85;4.20;;;10.60;65.30;;;;;;4974941;28;20230;-69
2022/05/10 02:09:46;;;;;;;11.25;5.10;;;10.70;65.10;;;;;;4990815;28;20240;-69
2022/05/10 02:12:39;;;;;;;7.57;4.50;;;10.40;65.40;;;;;;4986754;28;20222;-70
2022/05/10 02:15:35;;;;;;;7.20;4.37;;;10.20;66.10;;;;;;4981367;28;20372;-69
2022/05/10 02:18:31;;;;;;;9.18;4.43;;;10.50;66.10;;;;;;4973881;28;20234;-71
2022/05/10 02:21:27;;;;;;;13.52;5.10;;;10.30;66.30;;;;;;4991326;28;20222;-70
2022/05/10 02:24:21;;;;;;;7.63;4.70;;;10.50;66.50;;;;;;4993574;28;20233;-71
2022/05/10 02:27:14;;;;;;;10.83;4.47;;;10.60;65.40;;;;;;4989452;28;20669;-72
2022/05/10 02:30:10;;;;;;;6.93;4.90;;;10.50;65.90;;;;;;4981796;28;20272;-73
2022/05/10 02:33:10;;;;;;;9.70;4.90;;;10.20;66.50;;;;;;4980055;28;20230;-71
2022/05/10 02:36:04;;;;;;;8.17;4.80;;;10.20;67.10;;;;;;4995512;28;20776;-67
2022/05/10 02:38:58;;;;;;;7.80;4.87;;;10.10;67.10;;;;;;4997965;28;20295;-68
2022/05/10 02:41:47;;;;;;;9.13;4.70;;;10.10;67.60;;;;;;4988040;28;20876;-68
2022/05/10 02:44:36;;;;;;;12.40;5.10;;;10.00;67.60;;;;;;4988404;28;20219;-70
2022/05/10 02:47:30;;;;;;;8.00;4.83;;;10.30;67.10;;;;;;4989667;28;20234;-71
2022/05/10 02:50:24;;;;;;;10.40;4.90;;;10.40;66.50;;;;;;4999926;28;20670;-69
2022/05/10 02:53:13;;;;;;;6.63;4.60;;;10.30;66.60;;;;;;4989358;28;20252;-68
2022/05/10 02:56:07;;;;;;;12.47;5.10;;;10.10;67.30;;;;;;4982427;28;20233;-68
2022/05/10 02:59:00;;;;;;;9.67;5.10;;;10.20;67.60;;;;;;4998372;28;20237;-68
2022/05/10 03:01:56;;;;;;;7.37;5.03;;;10.00;68.00;;;;;;4991100;28;20226;-67
2022/05/10 03:04:51;;;;;;;9.30;4.80;;;9.80;68.40;;;;;;4995241;28;20724;-70
2022/05/10 03:07:39;;;;;;;11.10;4.90;;;9.70;68.70;;;;;;4989543;28;20226;-69
2022/05/10 03:10:28;;;;;;;8.03;4.60;;;9.70;69.30;;;;;;4977464;28;20226;-69
2022/05/10 03:13:19;;;;;;;8.33;5.23;;;9.70;69.20;;;;;;4949021;28;20241;-70
2022/05/10 03:16:08;;;;;;;12.17;4.83;;;9.50;69.30;;;;;;4971675;28;20227;-69
2022/05/10 03:18:57;;;;;;;8.30;5.07;;;9.50;71.20;;;;;;4967031;28;20646;-71
2022/05/10 03:21:49;;;;;;;10.33;5.07;;;9.60;69.90;;;;;;4971256;28;20675;-70
2022/05/10 03:24:38;;;;;;;11.83;4.63;;;9.70;70.20;;;;;;4964804;28;20225;-69
2022/05/10 03:27:28;;;;;;;9.70;5.57;;;9.50;70.90;;;;;;4970539;28;20333;-70
2022/05/10 03:30:18;;;;;;;9.37;5.20;;;9.40;70.90;;;;;;4978759;28;20234;-69
2022/05/10 03:33:07;;;;;;;16.83;5.20;;;9.30;71.70;;;;;;4976376;28;20228;-70
2022/05/10 03:35:56;;;;;;;11.67;5.57;;;9.30;71.40;;;;;;4975643;28;20312;-70
2022/05/10 03:38:44;;;;;;;13.83;5.73;;;9.40;71.50;;;;;;4965444;28;20237;-69
2022/05/10 03:41:33;;;;;;;9.63;5.60;;;9.50;71.30;;;;;;4965680;28;21411;-70
2022/05/10 03:44:22;;;;;;;10.20;4.87;;;9.50;71.30;;;;;;4970308;28;20310;-69
2022/05/10 03:47:17;;;;;;;10.70;5.20;;;9.70;71.10;;;;;;4974435;28;20221;-69
2022/05/10 03:50:08;;;;;;;6.97;4.67;;;10.00;70.40;;;;;;4970313;28;21145;-69
2022/05/10 03:52:57;;;;;;;10.60;5.10;;;9.80;70.30;;;;;;4972130;28;20598;-70
2022/05/10 03:55:46;;;;;;;10.20;5.20;;;9.90;70.00;;;;;;4963947;28;20533;-70
2022/05/10 03:58:37;;;;;;;10.87;4.90;;;9.90;69.70;;;;;;4977678;28;20222;-70
2022/05/10 04:01:26;;;;;;;12.03;5.70;;;9.80;69.80;;;;;;4971940;28;20286;-73
2022/05/10 04:04:16;;;;;;;11.07;5.30;;;9.70;69.30;;;;;;4980618;28;20313;-70
2022/05/10 04:07:05;;;;;;;8.67;5.17;;;9.60;70.20;;;;;;4983762;28;20237;-70
2022/05/10 04:09:54;;;;;;;11.07;5.43;;;9.80;70.20;;;;;;4995511;28;20242;-69
2022/05/10 04:12:44;;;;;;;10.80;5.20;;;9.90;70.30;;;;;;4998770;28;20248;-71
2022/05/10 04:15:33;;;;;;;9.20;5.15;;;10.10;69.20;;;;;;5000673;28;20227;-69
2022/05/10 04:18:22;;;;;;;9.55;4.95;;;10.30;69.30;;;;;;5005511;28;20226;-69
2022/05/10 04:21:16;;;;;;;10.15;4.95;;;10.50;68.50;;;;;;5007294;28;20229;-70
2022/05/10 04:24:05;;;;;;;10.80;5.30;;;10.60;68.00;;;;;;4987562;28;20225;-69
2022/05/10 04:26:54;;;;;;;10.68;5.35;;;10.50;68.00;;;;;;4985698;28;20687;-69
2022/05/10 04:29:42;;;;;;;12.70;5.40;;;10.60;67.70;;;;;;5003542;28;20237;-71
2022/05/10 04:32:31;;;;;;;8.85;5.47;;;10.60;67.70;;;;;;5001182;28;20229;-70
2022/05/10 04:35:19;;;;;;;8.35;5.38;;;10.70;68.20;;;;;;4999807;28;20763;-70
2022/05/10 04:38:10;;;;;;;10.07;4.85;;;10.80;67.80;;;;;;4999616;28;20360;-70
2022/05/10 04:44:08;;;;;;;10.88;4.97;;;10.70;68.00;;;;;;4991672;28;20229;-68
2022/05/10 04:46:57;;;;;;;10.13;5.03;;;10.50;68.50;;;;;;4986405;28;20244;-69
2022/05/10 04:49:45;;;;;;;14.70;6.05;;;10.60;68.80;;;;;;4984905;28;20365;-68
2022/05/10 04:52:37;;;;;;;16.85;5.75;;;10.90;68.90;;;;;;5004928;28;20249;-69
2022/05/10 04:55:28;;;;;;;12.07;6.07;;;11.10;68.60;;;;;;4996339;28;20706;-71
2022/05/10 04:58:16;;;;;;;12.55;5.85;;;11.10;68.10;;;;;;5005478;28;20223;-70
2022/05/10 05:01:07;;;;;;;14.05;5.47;;;11.20;68.00;;;;;;4993491;28;20563;-71
2022/05/10 05:03:59;;;;;;;9.32;5.25;;;11.00;67.40;;;;;;4994461;28;20279;-70
2022/05/10 05:06:51;;;;;;;13.50;5.30;;;11.20;67.90;;;;;;4987792;28;20229;-72
2022/05/10 05:09:40;;;;;;;13.38;5.78;;;11.30;67.20;;;;;;5006923;28;20324;-70
2022/05/10 05:12:32;;;;;;;14.50;5.38;;;11.40;67.40;;;;;;4998670;28;20313;-70
2022/05/10 05:15:21;;;;;;;14.45;5.22;;;11.70;66.70;;;;;;4986792;28;20242;-69
2022/05/10 05:18:10;;;;;;;11.95;5.65;;;11.90;66.70;;;;;;5001170;28;20260;-71
2022/05/10 05:20:59;;;;;;;12.65;5.00;;;11.90;66.40;;;;;;4989175;28;20295;-69
2022/05/10 05:23:47;;;;;;;13.82;4.60;;;12.10;66.20;;;;;;4985211;28;20272;-70
2022/05/10 05:26:36;;;;;;;11.13;5.03;;;12.10;65.80;;;;;;5001636;28;20218;-69
2022/05/10 05:29:27;;;;;;;13.27;4.95;;;12.20;65.40;;;;;;4983609;28;20482;-68
2022/05/10 05:32:36;;;;;;;12.57;4.53;;;12.40;65.40;;;;;;4997288;28;20218;-69
2022/05/10 05:35:24;;;;;;;7.82;4.47;;;12.60;65.50;;;;;;5000789;28;20240;-68
2022/05/10 05:38:17;;;;;;;13.20;4.18;;;12.70;65.10;;;;;;5003666;28;20337;-68
2022/05/10 05:41:06;;;;;;;8.10;3.88;;;12.80;64.10;;;;;;4997191;28;20238;-70
2022/05/10 05:43:55;;;;;;;11.88;4.22;;;12.90;63.50;;;;;;4998963;28;20697;-67
2022/05/10 05:46:45;;;;;;;13.10;4.20;;;13.10;61.90;;;;;;4995082;28;20222;-68
2022/05/10 05:49:34;;;;;;;12.27;3.97;;;13.20;61.00;;;;;;4994397;28;20834;-67
2022/05/10 05:52:23;;;;;;;9.55;3.42;;;14.00;60.10;;;;;;4997679;28;20312;-68
2022/05/10 05:55:16;;;;;;;8.00;3.70;;;14.60;57.70;;;;;;4990007;28;20251;-69
2022/05/10 05:58:05;;;;;;;6.97;3.28;;;14.20;57.90;;;;;;4982699;28;20249;-69
2022/05/10 06:00:54;;;;;;;6.35;3.70;;;14.00;58.40;;;;;;4992054;28;20237;-70
2022/05/10 06:03:45;;;;;;;7.82;3.67;;;13.90;58.80;;;;;;4983803;28;20241;-71
2022/05/10 06:06:33;;;;;;;9.85;3.78;;;13.90;58.90;;;;;;5004544;28;20225;-68
2022/05/10 06:09:23;;;;;;;6.30;3.53;;;13.90;59.40;;;;;;4995023;28;20246;-70
2022/05/10 06:12:14;;;;;;;8.18;3.78;;;14.00;59.60;;;;;;4996846;28;20272;-71
2022/05/10 06:15:08;;;;;;;10.23;4.30;;;14.10;60.20;;;;;;4996673;28;20708;-71
2022/05/10 06:17:58;;;;;;;11.32;3.75;;;14.10;59.80;;;;;;4987355;28;20324;-72
2022/05/10 06:20:49;;;;;;;8.30;3.42;;;14.20;59.70;;;;;;5000578;28;20277;-71
2022/05/10 06:23:37;;;;;;;6.57;3.60;;;14.10;59.50;;;;;;4982501;28;20230;-70
2022/05/10 06:26:26;;;;;;;8.82;3.28;;;14.30;59.60;;;;;;4998624;28;20238;-69
2022/05/10 06:29:15;;;;;;;11.63;3.55;;;14.60;58.80;;;;;;4995561;28;20242;-69
2022/05/10 06:32:05;;;;;;;8.35;3.83;;;14.70;59.10;;;;;;4992183;28;20232;-69
2022/05/10 06:35:00;;;;;;;7.05;3.13;;;14.90;59.40;;;;;;4999900;28;20229;-70
2022/05/10 06:41:06;;;;;;;9.77;3.47;;;15.20;57.70;;;;;;4992770;28;20809;-71
2022/05/10 06:43:55;;;;;;;10.40;3.38;;;15.40;57.60;;;;;;5000628;28;20220;-71
2022/05/10 06:46:46;;;;;;;9.27;3.28;;;15.40;56.60;;;;;;4996516;28;20215;-70
2022/05/10 06:49:37;;;;;;;10.98;3.08;;;15.50;57.40;;;;;;4999799;28;20305;-70
2022/05/10 06:52:35;;;;;;;6.78;2.90;;;15.90;57.90;;;;;;5002101;28;20222;-71
2022/05/10 06:55:26;;;;;;;11.73;3.22;;;16.00;56.00;;;;;;4991493;28;20225;-71
2022/05/10 06:58:14;;;;;;;5.28;3.13;;;16.10;55.40;;;;;;4994139;28;20222;-69
2022/05/10 07:01:05;;;;;;;5.20;2.47;;;16.20;54.00;;;;;;5004106;28;20237;-70
2022/05/10 07:03:54;;;;;;;5.13;3.15;;;16.30;53.40;;;;;;4987199;28;20225;-71
2022/05/10 07:06:43;;;;;;;5.50;2.55;;;16.70;52.60;;;;;;4980370;28;20222;-71
2022/05/10 07:09:31;;;;;;;7.55;2.90;;;16.90;52.80;;;;;;4998168;28;20230;-70
2022/05/10 07:12:22;;;;;;;4.68;2.88;;;17.20;52.30;;;;;;4980663;28;20281;-71
2022/05/10 07:15:14;;;;;;;4.95;2.63;;;17.30;51.70;;;;;;4996649;28;20307;-71
2022/05/10 07:18:06;;;;;;;4.43;2.50;;;17.20;52.70;;;;;;4994084;28;20228;-71
2022/05/10 07:20:56;;;;;;;6.03;2.55;;;17.50;51.70;;;;;;4998105;28;20233;-72
2022/05/10 07:23:44;;;;;;;5.43;2.33;;;17.80;51.70;;;;;;4994610;28;20217;-72
2022/05/10 07:26:33;;;;;;;6.18;2.78;;;18.20;50.00;;;;;;4993606;28;20226;-69
2022/05/10 07:29:23;;;;;;;7.40;2.65;;;18.60;50.00;;;;;;4993877;28;20273;-72
2022/05/10 07:32:14;;;;;;;7.05;3.08;;;18.70;49.90;;;;;;4983365;28;20337;-72
2022/05/10 07:35:04;;;;;;;5.05;2.70;;;19.00;48.90;;;;;;5000495;28;20230;-71
2022/05/10 07:37:53;;;;;;;5.32;2.80;;;19.00;48.70;;;;;;4996264;28;20705;-71
2022/05/10 07:40:44;;;;;;;6.13;2.63;;;19.50;48.50;;;;;;4984037;28;20230;-70
2022/05/10 07:43:36;;;;;;;2.78;2.25;;;20.60;47.40;;;;;;4984502;28;20559;-69
2022/05/10 07:46:27;;;;;;;5.68;2.80;;;21.50;44.80;;;;;;5003922;28;20675;-71
2022/05/10 07:49:16;;;;;;;9.88;3.78;;;21.70;44.30;;;;;;4986344;28;20241;-71
2022/05/10 07:52:05;;;;;;;6.18;3.25;;;21.90;43.90;;;;;;4984196;28;20223;-70
2022/05/10 07:54:54;;;;;;;6.65;3.63;;;22.10;43.50;;;;;;4989577;28;20909;-70
2022/05/10 07:57:43;;;;;;;8.82;3.08;;;23.30;42.40;;;;;;5005370;28;20637;-73
2022/05/10 08:00:33;;;;;;;5.95;3.35;;;24.70;41.60;;;;;;4993322;28;20237;-71
2022/05/10 08:03:25;;;;;;;6.55;3.85;;;25.50;41.20;;;;;;4988251;28;21205;-71
2022/05/10 08:06:15;;;;;;;9.82;3.40;;;26.70;39.80;;;;;;4994603;28;20229;-70
2022/05/10 08:09:03;;;;;;;6.85;3.22;;;26.80;37.90;;;;;;4979829;28;20870;-72
2022/05/10 08:11:52;;;;;;;5.40;3.33;;;26.60;37.60;;;;;;4991408;28;20836;-71
2022/05/10 08:14:41;;;;;;;5.55;2.90;;;27.30;37.70;;;;;;4990379;28;20246;-71
2022/05/10 08:17:30;;;;;;;5.50;3.30;;;28.50;37.30;;;;;;4993818;28;20313;-72
2022/05/10 08:20:20;;;;;;;10.07;3.35;;;28.30;36.20;;;;;;4998073;28;20222;-71
2022/05/10 08:23:11;;;;;;;5.65;3.70;;;29.50;36.40;;;;;;5000796;28;20351;-71
2022/05/10 08:26:02;;;;;;;4.25;3.33;;;29.70;35.50;;;;;;4986811;28;20589;-71
2022/05/10 08:28:51;;;;;;;5.50;3.38;;;30.70;34.20;;;;;;4988694;28;20229;-71
2022/05/10 08:31:46;;;;;;;6.43;3.20;;;30.40;34.50;;;;;;4985658;28;20253;-71
2022/05/10 08:34:44;;;;;;;4.93;2.95;;;30.30;34.30;;;;;;4985165;28;20230;-72
2022/05/10 08:37:36;;;;;;;4.72;3.08;;;31.60;33.30;;;;;;4984233;28;20237;-72
2022/05/10 08:40:28;;;;;;;5.72;3.20;;;29.90;32.60;;;;;;4981900;28;20226;-70
2022/05/10 08:43:21;;;;;;;5.35;3.40;;;29.50;34.60;;;;;;4999736;28;20232;-71
2022/05/10 08:46:13;;;;;;;3.65;2.90;;;31.50;32.60;;;;;;4987246;28;20307;-71
2022/05/10 08:49:04;;;;;;;6.45;3.00;;;30.90;32.00;;;;;;4993073;28;20253;-71
2022/05/10 08:51:55;;;;;;;3.92;3.08;;;31.70;32.30;;;;;;4984890;28;20684;-71
2022/05/10 08:54:45;;;;;;;7.57;3.65;;;30.60;32.20;;;;;;4995700;28;20229;-71
2022/05/10 08:57:46;;;;;;;6.70;3.30;;;31.90;31.50;;;;;;4986158;28;20297;-71
2022/05/10 09:00:42;;;;;;;3.88;3.15;;;29.80;32.20;;;;;;4997149;28;20559;-71
2022/05/10 09:03:38;;;;;;;6.97;3.88;;;30.80;32.80;;;;;;4985866;28;20353;-70
2022/05/10 09:06:37;;;;;;;2.92;2.65;;;32.40;32.00;;;;;;4998687;28;20233;-73
2022/05/10 09:09:28;;;;;;;7.72;2.95;;;34.80;29.70;;;;;;4984523;28;20312;-71
2022/05/10 09:12:30;;;;;;;6.05;2.88;;;35.00;30.00;;;;;;4979932;28;20242;-72
2022/05/10 09:15:19;;;;;;;5.60;3.35;;;34.70;29.00;;;;;;4999690;28;20830;-73
2022/05/10 09:18:13;;;;;;;5.75;2.85;;;33.40;30.00;;;;;;4995609;28;20236;-71
2022/05/10 09:21:09;;;;;;;4.57;3.00;;;33.10;30.00;;;;;;4984917;28;20573;-68
2022/05/10 09:24:13;;;;;;;5.47;3.10;;;34.70;29.70;;;;;;4998580;28;20937;-71
2022/05/10 09:27:05;;;;;;;7.93;2.97;;;34.50;28.90;;;;;;4982857;28;20383;-71
2022/05/10 09:29:55;;;;;;;5.38;3.08;;;34.80;28.80;;;;;;4986564;28;20230;-71
2022/05/10 09:35:52;;;;;;;3.60;2.97;;;34.70;29.00;;;;;;4986410;28;20225;-72
2022/05/10 09:38:47;;;;;;;6.30;2.80;;;35.20;28.70;;;;;;4981899;28;20229;-71
2022/05/10 09:41:41;;;;;;;4.68;2.83;;;35.20;28.20;;;;;;4982134;28;20236;-72
2022/05/10 09:44:35;;;;;;;3.67;2.97;;;35.60;28.20;;;;;;4983197;28;20225;-72
2022/05/10 09:47:26;;;;;;;5.28;2.75;;;34.20;28.60;;;;;;4998470;28;20229;-71
2022/05/10 09:50:19;;;;;;;6.32;2.75;;;34.40;28.10;;;;;;4994472;28;20253;-71
2022/05/10 09:53:18;;;;;;;5.35;2.80;;;34.00;28.40;;;;;;4995180;28;21011;-71
2022/05/10 09:56:12;;;;;;;4.15;2.38;;;33.30;28.90;;;;;;4998255;28;20296;-73
2022/05/10 09:59:04;;;;;;;5.97;2.72;;;30.80;29.50;;;;;;4997571;28;20229;-71
2022/05/10 10:01:56;;;;;;;5.32;3.10;;;31.40;30.00;;;;;;4996966;28;20368;-71
2022/05/10 10:04:48;;;;;;;5.07;2.90;;;31.80;29.20;;;;;;4986186;28;20244;-72
2022/05/10 10:07:49;;;;;;;4.63;2.60;;;30.10;29.60;;;;;;4989277;28;20224;-71
2022/05/10 10:10:39;;;;;;;3.28;2.40;;;29.60;29.00;;;;;;4985173;28;20364;-69
2022/05/10 10:13:32;;;;;;;5.00;2.60;;;28.90;29.70;;;;;;4994918;28;20260;-73
2022/05/10 10:16:25;;;;;;;5.65;2.60;;;28.80;30.00;;;;;;4983507;28;20800;-72
2022/05/10 10:19:36;;;;;;;3.38;2.30;;;30.30;29.80;;;;;;4980873;28;20233;-70
2022/05/10 10:22:38;;;;;;;3.50;2.30;;;31.90;29.30;;;;;;4991178;28;20229;-71
2022/05/10 10:25:29;;;;;;;4.32;2.53;;;32.90;28.90;;;;;;4981278;28;20232;-75
2022/05/10 10:28:27;;;;;;;3.22;2.33;;;31.20;29.00;;;;;;4994948;28;20221;-72
2022/05/10 10:31:21;;;;;;;5.30;2.60;;;31.70;28.70;;;;;;4993896;28;20230;-73
2022/05/10 10:34:18;;;;;;;3.47;2.65;;;32.30;29.10;;;;;;4993314;28;20304;-72
2022/05/10 10:37:12;;;;;;;5.47;2.50;;;32.90;28.60;;;;;;4981820;28;20811;-74
2022/05/10 10:40:12;;;;;;;3.70;2.08;;;34.00;29.10;;;;;;4994231;28;20643;-74
2022/05/10 10:43:11;;;;;;;6.03;4.65;;;34.00;28.00;;;;;;4981782;28;20329;-73
2022/05/10 10:46:05;;;;;;;6.50;2.80;;;34.60;28.10;;;;;;4994893;28;20291;-72
2022/05/10 10:48:57;;;;;;;3.17;2.10;;;35.10;27.70;;;;;;4995483;28;20229;-72
2022/05/10 10:51:50;;;;;;;2.88;2.08;;;34.00;26.90;;;;;;4980876;28;20248;-71
2022/05/10 10:54:39;;;;;;;4.45;2.25;;;34.90;27.10;;;;;;5000602;28;20221;-75
2022/05/10 10:57:52;;;;;;;3.78;2.40;;;35.50;27.10;;;;;;4995153;28;20870;-73
2022/05/10 11:00:52;;;;;;;4.13;2.30;;;35.30;26.90;;;;;;4992587;28;20691;-73
2022/05/10 11:03:53;;;;;;;4.07;2.47;;;35.50;26.80;;;;;;4994647;28;20661;-73
2022/05/10 11:06:50;;;;;;;3.63;2.10;;;34.30;27.50;;;;;;4994922;28;21341;-73
2022/05/10 11:09:48;;;;;;;5.97;2.40;;;32.10;27.20;;;;;;4994693;28;20739;-72
2022/05/10 11:12:56;;;;;;;4.13;2.67;;;33.50;28.30;;;;;;4994134;28;20240;-71
2022/05/10 11:15:59;;;;;;;6.15;2.28;;;35.80;27.80;;;;;;4982878;28;20228;-72
2022/05/10 11:19:02;;;;;;;4.03;2.22;;;36.40;26.60;;;;;;4994854;28;20235;-72
2022/05/10 11:21:59;;;;;;;4.95;2.47;;;36.90;26.20;;;;;;4992535;28;20213;-71
2022/05/10 11:24:58;;;;;;;4.95;2.22;;;37.10;26.00;;;;;;4991008;28;20785;-73
2022/05/10 11:30:56;;;;;;;3.97;2.28;;;37.30;26.30;;;;;;5056865;27;20683;-73
2022/05/10 11:33:53;;;;;;;2.85;2.20;;;36.80;26.50;;;;;;5027091;28;20220;-73
2022/05/10 11:36:45;;;;;;;3.53;2.20;;;37.00;26.10;;;;;;5033410;28;20279;-72
2022/05/10 11:40:05;;;;;;;3.42;1.90;;;36.10;24.90;;;;;;5050761;28;20870;-73
2022/05/10 11:43:21;;;;;;;3.80;2.10;;;34.40;26.00;;;;;;5041224;28;20826;-73
2022/05/10 11:46:42;;;;;;;7.03;2.40;;;34.10;26.60;;;;;;5046009;28;20346;-74
2022/05/10 11:50:20;;;;;;;3.63;2.10;;;35.30;26.00;;;;;;5069428;28;20230;-73
2022/05/10 11:53:48;;;;;;;5.82;2.40;;;33.90;25.70;;;;;;5054682;28;20555;-74
2022/05/10 11:56:40;;;;;;;4.30;2.38;;;34.00;26.50;;;;;;5080172;28;20326;-72
2022/05/10 11:59:36;;;;;;;3.25;1.90;;;33.80;26.30;;;;;;5070736;28;20207;-73
2022/05/10 12:02:51;;;;;;;6.03;2.20;;;34.40;25.80;;;;;;5071007;28;20227;-72
2022/05/10 12:05:41;;;;;;;3.00;2.10;;;35.70;25.30;;;;;;5065641;28;20313;-71
2022/05/10 12:08:41;;;;;;;5.63;2.40;;;36.30;25.30;;;;;;5072483;28;20219;-72
2022/05/10 12:11:44;;;;;;;2.60;1.90;;;37.50;24.90;;;;;;5068552;28;20279;-69
2022/05/10 12:21:31;;;;;;;4.82;2.20;;;37.00;25.30;;;;;;5070465;28;20219;-71
2022/05/10 12:24:33;;;;;;;6.82;2.30;;;36.40;25.80;;;;;;5071351;28;20805;-70
2022/05/10 12:27:36;;;;;;;4.30;2.20;;;37.90;25.50;;;;;;5073161;28;20309;-70
2022/05/10 12:30:34;;;;;;;9.80;2.10;;;38.50;24.10;;;;;;5053211;28;20310;-71
2022/05/10 12:33:35;;;;;;;5.18;2.10;;;34.90;24.70;;;;;;5059331;28;20218;-71
2022/05/10 12:36:29;;;;;;;3.22;2.08;;;31.70;25.70;;;;;;5070622;28;20376;-71
2022/05/10 12:39:22;;;;;;;4.00;2.50;;;30.50;27.10;;;;;;5065592;28;20222;-71
2022/05/10 12:42:17;;;;;;;4.93;2.22;;;29.20;27.40;;;;;;5062023;28;20704;-70
2022/05/10 12:45:23;;;;;;;3.05;2.10;;;28.20;28.10;;;;;;5057456;28;20210;-71
2022/05/10 12:48:31;;;;;;;2.67;2.17;;;27.00;28.30;;;;;;5055548;28;20902;-70
2022/05/10 12:51:41;;;;;;;5.38;2.25;;;25.30;29.40;;;;;;5039759;28;20211;-70
2022/05/10 12:54:38;;;;;;;3.97;2.17;;;24.60;29.90;;;;;;5052177;28;20777;-72
2022/05/10 12:57:40;;;;;;;4.55;2.17;;;23.90;30.60;;;;;;5065413;28;20220;-71
2022/05/10 13:00:36;;;;;;;3.40;2.40;;;24.50;30.20;;;;;;5051421;28;20307;-72
2022/05/10 13:03:35;;;;;;;5.35;2.33;;;24.90;30.50;;;;;;5054013;28;20347;-71
2022/05/10 13:06:34;;;;;;;7.22;2.70;;;25.00;29.90;;;;;;5052885;28;20715;-69
2022/05/10 13:09:32;;;;;;;3.20;2.58;;;24.90;29.90;;;;;;5064870;28;20299;-71
2022/05/10 13:12:25;;;;;;;6.07;2.65;;;24.80;29.50;;;;;;5056679;28;20227;-71
2022/05/10 13:15:17;;;;;;;6.47;2.45;;;24.90;29.80;;;;;;5058879;28;20227;-70
2022/05/10 13:18:11;;;;;;;5.15;2.50;;;25.00;29.90;;;;;;5059024;28;20655;-71
2022/05/10 13:21:01;;;;;;;3.45;2.50;;;25.10;30.50;;;;;;5064267;28;20235;-69
2022/05/10 13:23:52;;;;;;;3.78;2.40;;;24.60;31.10;;;;;;5071747;28;20288;-73
2022/05/10 13:26:57;;;;;;;4.53;2.20;;;24.50;30.90;;;;;;5050081;28;20220;-72
2022/05/10 13:29:52;;;;;;;8.93;2.40;;;24.40;30.70;;;;;;5054837;28;20347;-69
2022/05/10 13:32:45;;;;;;;5.47;2.20;;;24.40;30.60;;;;;;5050254;28;20248;-70
2022/05/10 13:35:36;;;;;;;6.70;2.10;;;24.00;31.50;;;;;;5063357;28;20666;-70
2022/05/10 13:38:29;;;;;;;4.15;2.40;;;24.20;31.80;;;;;;5050401;28;20232;-73
2022/05/10 13:41:26;;;;;;;6.40;2.53;;;24.10;31.40;;;;;;5049451;28;20246;-71
2022/05/10 13:44:19;;;;;;;4.78;2.13;;;23.90;32.00;;;;;;5051873;28;20224;-72
2022/05/10 13:47:29;;;;;;;3.92;2.08;;;23.90;32.00;;;;;;5049584;28;20730;-71
2022/05/10 13:50:22;;;;;;;4.20;2.47;;;23.80;31.90;;;;;;5051084;28;20308;-71
2022/05/10 13:53:19;;;;;;;7.22;2.22;;;23.50;31.20;;;;;;5051358;28;20236;-71
2022/05/10 13:56:14;;;;;;;5.68;2.60;;;23.60;31.00;;;;;;5035399;28;20226;-70
2022/05/10 13:59:03;;;;;;;7.63;2.30;;;23.30;31.90;;;;;;5050863;28;20223;-70
2022/05/10 14:01:53;;;;;;;3.72;2.55;;;23.50;32.10;;;;;;5053562;28;20236;-70
2022/05/10 14:04:45;;;;;;;4.60;2.45;;;23.80;31.30;;;;;;5033966;28;20231;-70
2022/05/10 14:07:38;;;;;;;5.85;2.70;;;23.70;31.40;;;;;;5039052;28;20697;-69
2022/05/10 14:10:33;;;;;;;4.63;2.40;;;23.50;31.80;;;;;;5052650;28;20337;-69
2022/05/10 14:13:23;;;;;;;4.53;2.42;;;23.50;32.60;;;;;;5036399;28;20270;-72
2022/05/10 14:16:29;;;;;;;3.63;2.45;;;23.50;32.60;;;;;;5051737;28;20216;-70
2022/05/10 14:19:24;;;;;;;8.23;2.63;;;23.10;33.00;;;;;;5069744;28;20273;-70
2022/05/10 14:22:17;;;;;;;6.18;3.17;;;23.00;33.20;;;;;;5058130;28;20228;-71
2022/05/10 14:25:08;;;;;;;6.28;2.60;;;22.90;33.80;;;;;;5041210;28;20223;-70
2022/05/10 14:28:10;;;;;;;4.57;2.35;;;23.00;33.90;;;;;;5054798;28;20280;-71
2022/05/10 14:31:10;;;;;;;8.13;2.50;;;22.80;34.40;;;;;;5055987;28;20243;-71
2022/05/10 14:34:02;;;;;;;7.32;2.25;;;22.90;35.00;;;;;;5036118;28;20247;-72
2022/05/10 14:36:53;;;;;;;5.53;2.40;;;22.90;35.10;;;;;;5054293;28;20691;-72
2022/05/10 14:39:41;;;;;;;6.40;2.70;;;22.50;34.90;;;;;;5040677;28;20372;-70
2022/05/10 15:49:10;;;;;;;5.72;2.30;;;22.10;37.70;;;;;;4983109;28;20560;-70
2022/05/10 15:51:58;;;;;;;9.73;2.60;;;21.90;38.60;;;;;;4996126;28;20234;-73
2022/05/10 15:54:47;;;;;;;4.30;2.10;;;21.80;38.70;;;;;;5002498;28;20325;-76
2022/05/10 15:57:40;;;;;;;5.07;2.25;;;21.80;39.20;;;;;;4995148;28;20369;-78
2022/05/10 16:00:30;;;;;;;8.00;2.70;;;21.80;39.20;;;;;;4995840;28;20277;-74
2022/05/10 16:03:19;;;;;;;7.13;2.63;;;21.80;39.10;;;;;;5011472;28;20218;-71
2022/05/10 16:06:10;;;;;;;5.55;2.55;;;21.90;39.40;;;;;;4996821;28;20334;-73
2022/05/10 16:08:59;;;;;;;5.80;2.28;;;21.70;39.10;;;;;;4994897;28;20238;-74
2022/05/10 16:11:48;;;;;;;6.65;2.28;;;21.70;39.00;;;;;;4996563;28;20871;-74
2022/05/10 16:14:40;;;;;;;6.53;2.45;;;21.80;39.30;;;;;;5010276;28;20233;-71
2022/05/10 16:17:29;;;;;;;5.40;2.50;;;21.60;39.20;;;;;;4992376;28;20593;-72
2022/05/10 16:20:24;;;;;;;7.63;2.30;;;21.70;39.50;;;;;;4992434;28;20223;-71
2022/05/10 16:23:14;;;;;;;7.78;2.50;;;21.60;39.40;;;;;;4992814;28;20369;-71
2022/05/10 16:26:02;;;;;;;8.07;2.53;;;21.60;39.50;;;;;;4996768;28;20584;-70
2022/05/10 16:31:57;;;;;;;5.30;2.20;;;21.30;41.00;;;;;;5005595;28;20250;-68